x

Stonewall Bank - 20nm West Of Newport, Or (46050) Wave Buoy

3:50am - Wed 1st Jul 2015 All times are PDT. -7 hours from GMT.

  • Sig Wave height 5.9ft
  • Swell Direction
  • Peak Period 7s
  • Average Period 5s
  • Wind
    22mph, 27mph gusts
  • Sea Temp 55°f
  • Air Temp 58°f
  • Sea Pressure 1016mb
  • Stonewall Bank - 20nm West Of Newport, Or
  • Stonewall Bank - 20nm West Of Newport, Or

More Historic Weather Station data

Upgrade to MSW Pro to gain access to the past 30 days of data for over 8000 Wavebouys and Weather Stations around the globe.

Join Pro

Comparision Forecast

View Surf forecast
   
Wed 07/01 3:50am 6ft 7s 5s 22 27 mph 1016mb 55f 58f
2:50am 6.5ft 7s 5s 22 27 mph 1016.2mb 55f 58f
1:50am 6.5ft 7s 5s 22 27 mph 1016.6mb 55f 58f
12:50am 6ft 7s 5s 22 29 mph 1016.7mb 56f 58f
Tue 06/30 11:50pm 6ft 7s 5s 25 29 mph 1016.7mb 56f 59f
10:50pm 6ft 7s 5s 25 31 mph 1017mb 57f 59f
9:50pm 6.5ft 7s 5s 25 29 mph 1016.9mb 57f 59f
8:50pm 6ft 6s 5s 25 29 mph 1016.9mb 58f 59f
7:50pm 6ft 6s 5s 25 29 mph 1016.8mb 58f 60f
6:50pm 6ft 6s 5s 29 34 mph 1016.9mb 58f 59f
5:50pm 5ft 6s 5s 27 31 mph 1017.1mb 58f 60f
4:50pm 5ft 6s 5s 22 29 mph 1017.6mb 58f 60f
3:50pm 4.5ft 6s 4s 22 27 mph 1018.1mb 58f 60f
2:50pm 4ft 4s 4s 25 29 mph 1018mb 59f 60f
1:50pm 3.5ft 15s 4s 22 25 mph 1018.6mb 59f 60f
12:50pm 3.5ft 14s 4s 20 25 mph 1019mb 59f 59f
11:50am 3.5ft 4s 4s 20 22 mph 1019.3mb 59f 59f
10:50am 3.5ft 14s 4s 18 22 mph 1019.2mb 59f 59f
9:50am 3ft 14s 5s 18 20 mph 1019.4mb 59f 59f
8:50am 3ft 15s 5s 16 18 mph 1019.3mb 59f 58f
7:50am 2.5ft 15s 6s 13 18 mph 1019.2mb 59f 59f
6:50am 2.5ft 14s 6s 11 13 mph 1019.1mb 59f 59f
5:50am 2.5ft 8s 7s 11 13 mph 1018.8mb 59f 59f
4:50am 2.5ft 15s 7s 9 11 mph 1018.7mb 59f 59f
3:50am 3ft 15s 7s 7
mph
1018.8mb 59f 59f
2:50am 2.5ft 15s 7s 4
mph
1018.8mb 59f 60f
1:50am 3ft 15s 7s 4
mph
1018.7mb 59f 60f
12:50am 3ft 15s 7s 4
mph
1018.6mb 59f 60f
Mon 06/29 11:50pm 3ft 15s 7s 4 7 mph 1018.4mb 59f 60f
10:50pm 3ft 15s 7s 4 7 mph 1018.5mb 59f 60f
9:50pm 3ft 15s 7s 4
mph
1017.9mb 59f 60f
8:50pm 2.5ft 15s 6s 4
mph
1017.9mb 59f 60f
7:50pm 3ft 15s 7s 4 7 mph 1017.9mb 60f 60f
6:50pm 3ft 15s 7s 7 9 mph 1017.8mb 59f 60f
5:50pm 3ft 16s 6s 9 11 mph 1018mb 59f 60f
4:50pm 2.5ft 15s 7s 7
mph
1018.1mb 59f 60f
3:50pm 3ft 15s 7s 7
mph
1018.3mb 58f 59f
2:50pm 3ft 16s 7s 7 9 mph 1018.3mb 58f 57f
1:50pm 3ft 16s 7s 11 13 mph 1018.6mb 57f 55f
12:50pm 3.5ft 16s 7s 11 13 mph 1018.3mb 56f 55f
11:50am 3ft 9s 6s 11 13 mph 1017.9mb 56f 55f
10:50am 3.5ft 16s 7s 13 16 mph 1017.7mb 56f 54f
9:50am 3.5ft 9s 7s 11 13 mph 1017.5mb 56f 54f
8:50am 3.5ft 8s 7s 9 11 mph 1017.4mb 57f 54f
7:50am 3.5ft 16s 7s 11 13 mph 1017.3mb 57f 54f
6:50am 3.5ft 16s 7s 9 13 mph 1017mb 56f 54f
5:50am 3ft 8s 7s 11 13 mph 1016.1mb 56f 54f
4:50am 3.5ft 9s 7s 9 11 mph 1015.8mb 55f 54f
3:50am 3.5ft 9s 7s 7 9 mph 1015.6mb 55f 54f
2:50am 3.5ft 9s 7s 9
mph
1015.6mb 55f 54f
1:50am 3.5ft 9s 7s 7 9 mph 1015.7mb 55f 54f
12:50am 3.5ft 9s 7s 9
mph
1015.4mb 55f 54f
Sun 06/28 11:50pm 4ft 9s 7s 9
mph
1015.2mb 55f 54f
10:50pm 4ft 8s 7s 7 9 mph 1014.9mb 56f 54f
9:50pm 3.5ft 9s 7s 4 7 mph 1014.6mb 55f 55f
8:50pm 3.5ft 9s 7s 7 9 mph 1014.8mb 56f 55f
7:50pm 3.5ft 10s 7s 7 9 mph 1014.4mb 56f 56f
6:50pm 3.5ft 9s 7s 9 11 mph 1014.2mb 56f 56f
5:50pm 3.5ft 9s 7s 11 13 mph 1014.5mb 56f 54f
4:50pm 3.5ft 10s 6s 4 7 mph 1014.9mb 56f 54f
3:50pm 4ft 7s 7s 2 4 mph 1014.9mb 56f 54f
2:50pm 4ft 9s 7s 7 9 mph 1015.3mb 55f 55f
1:50pm 3.5ft 7s 7s 7 9 mph 1015.6mb 54f 54f
12:50pm 4.5ft 9s 7s 11 13 mph 1015.9mb 54f 54f
11:50am 4ft 9s 6s 11 13 mph 1015.9mb 54f 54f
10:50am 4ft 8s 7s 11 13 mph 1015.2mb 55f 54f
9:50am 3.5ft 9s 6s 13 16 mph 1015.1mb 55f 54f
8:50am 3.5ft 8s 6s 11 13 mph 1014.7mb 55f 54f
7:50am 3.5ft 9s 6s 11 13 mph 1014.9mb 55f 53f
6:50am 3.5ft 8s 5s 4 11 mph 1013.7mb 54f 53f
5:50am 3.5ft 7s 5s 16 20 mph 1014.3mb 54f 53f
4:50am 4ft 7s 5s 13
mph
1013.6mb 55f 53f
3:50am 4ft 7s 5s 16 18 mph 1014mb 55f 53f
2:50am 4ft 7s 5s 16 20 mph 1014.4mb 55f 53f
1:50am 4.5ft 8s 5s 11 13 mph 1014.1mb 55f 53f
12:50am 4.5ft 7s 6s 13 16 mph 1014.4mb 54f 53f
Sat 06/27 11:50pm 4.5ft 7s 6s 13 16 mph 1014.3mb 54f 52f
10:50pm 4.5ft 7s 6s 9 11 mph 1014.4mb 54f 53f
9:50pm 4.5ft 7s 6s 11 13 mph 1014.1mb 54f 53f
8:50pm 4.5ft 8s 6s 11
mph
1013.5mb 54f 54f
7:50pm 4.5ft 7s 6s 9 11 mph 1013.3mb 55f 54f
6:50pm 5ft 8s 6s 9 11 mph 1013.2mb 56f 55f
5:50pm 4.5ft 7s 6s 7
mph
1013.3mb 56f 56f
3:50pm 5ft 8s 6s 4 7 mph 1013.3mb 57f 58f
2:50pm 5.5ft 7s 6s 2 4 mph 1013.5mb 56f 58f
1:50pm 5.5ft 8s 6s 4 7 mph 1013.9mb 55f 56f
12:50pm 6.5ft 7s 6s 7 9 mph 1013.4mb 54f 56f